createdAt,value
2019-02-18T00:01:58.380Z,9.40
2019-02-18T00:04:24.345Z,9.27
2019-02-18T00:06:51.065Z,8.63
2019-02-18T00:09:17.015Z,9.20
2019-02-18T00:11:43.021Z,8.27
2019-02-18T00:14:09.749Z,8.27
2019-02-18T00:16:35.736Z,8.33
2019-02-18T00:19:01.713Z,7.80
2019-02-18T00:21:27.782Z,7.73
2019-02-18T00:23:53.731Z,8.13
2019-02-18T00:26:19.734Z,7.60
2019-02-18T00:28:45.875Z,7.67
2019-02-18T00:31:11.879Z,7.70
2019-02-18T00:33:37.832Z,8.00
2019-02-18T00:36:03.766Z,7.90
2019-02-18T00:38:29.811Z,8.17
2019-02-18T00:40:56.530Z,7.97
2019-02-18T00:43:22.515Z,8.17
2019-02-18T00:45:48.476Z,6.87
2019-02-18T00:48:14.461Z,7.63
2019-02-18T00:50:40.407Z,7.90
2019-02-18T00:53:06.384Z,6.90
2019-02-18T00:55:32.337Z,8.20
2019-02-18T00:57:58.309Z,7.67
2019-02-18T01:00:24.998Z,7.27
2019-02-18T01:02:50.984Z,7.43
2019-02-18T01:05:16.931Z,7.67
2019-02-18T01:07:42.926Z,7.33
2019-02-18T01:10:08.893Z,7.63
2019-02-18T01:12:34.841Z,7.40
2019-02-18T01:15:00.829Z,7.23
2019-02-18T01:17:26.782Z,7.63
2019-02-18T01:19:53.522Z,7.93
2019-02-18T01:22:19.462Z,8.17
2019-02-18T01:24:45.427Z,7.43
2019-02-18T01:27:11.375Z,7.87
2019-02-18T01:29:37.332Z,7.63
2019-02-18T01:32:04.052Z,7.70
2019-02-18T01:34:30.034Z,7.53
2019-02-18T01:36:56.003Z,7.73
2019-02-18T01:39:21.968Z,7.77
2019-02-18T01:41:47.954Z,7.30
2019-02-18T01:44:13.911Z,7.50
2019-02-18T01:46:39.918Z,6.70
2019-02-18T01:49:06.606Z,7.37
2019-02-18T01:51:32.813Z,7.03
2019-02-18T01:53:58.759Z,7.10
2019-02-18T01:56:24.734Z,7.70
2019-02-18T01:58:50.697Z,7.37
2019-02-18T02:01:16.678Z,6.93
2019-02-18T02:03:42.626Z,6.90
2019-02-18T02:06:08.620Z,7.30
2019-02-18T02:08:34.590Z,7.87
2019-02-18T02:11:00.562Z,7.17
2019-02-18T02:13:27.267Z,7.27
2019-02-18T02:15:53.212Z,7.13
2019-02-18T02:18:19.924Z,6.83
2019-02-18T02:20:45.882Z,8.07
2019-02-18T02:23:12.590Z,7.07
2019-02-18T02:25:38.529Z,8.40
2019-02-18T02:28:04.550Z,8.30
2019-02-18T02:30:31.249Z,7.80
2019-02-18T02:32:57.351Z,7.07
2019-02-18T02:35:24.578Z,7.30
2019-02-18T02:37:51.296Z,7.30
2019-02-18T02:40:17.253Z,6.63
2019-02-18T02:42:43.980Z,6.27
2019-02-18T02:45:10.688Z,7.03
2019-02-18T02:47:36.650Z,6.67
2019-02-18T02:50:03.604Z,7.00
2019-02-18T02:52:29.552Z,6.77
2019-02-18T02:54:55.542Z,6.20
2019-02-18T02:57:21.543Z,6.53
2019-02-18T02:59:48.267Z,6.67
2019-02-18T03:02:14.225Z,6.70
2019-02-18T03:04:40.958Z,6.53
2019-02-18T03:07:07.818Z,6.60
2019-02-18T03:09:33.797Z,6.50
2019-02-18T03:11:59.760Z,6.50
2019-02-18T03:14:25.747Z,6.80
2019-02-18T03:16:51.883Z,6.43
2019-02-18T03:19:17.879Z,6.47
2019-02-18T03:21:43.837Z,7.00
2019-02-18T03:24:10.569Z,6.57
2019-02-18T03:26:36.517Z,6.10
2019-02-18T03:29:02.471Z,6.13
2019-02-18T03:31:28.472Z,6.27
2019-02-18T03:33:54.445Z,6.50
2019-02-18T03:36:20.455Z,6.30
2019-02-18T03:38:46.410Z,6.97
2019-02-18T03:41:12.461Z,6.37
2019-02-18T03:43:39.145Z,6.63
2019-02-18T03:46:05.140Z,6.50
2019-02-18T03:48:31.104Z,6.77
2019-02-18T03:50:57.059Z,7.07
2019-02-18T03:53:23.188Z,6.57
2019-02-18T03:55:49.145Z,6.80
2019-02-18T03:58:15.132Z,6.17
2019-02-18T04:00:41.821Z,6.03
2019-02-18T04:03:07.815Z,5.63
2019-02-18T04:05:33.773Z,6.27
2019-02-18T04:07:59.755Z,6.37
2019-02-18T04:10:25.717Z,6.20
2019-02-18T04:12:51.702Z,7.03
2019-02-18T04:15:17.652Z,5.90
2019-02-18T04:17:43.656Z,5.53
2019-02-18T04:20:09.602Z,6.30
2019-02-18T04:22:35.558Z,6.30
2019-02-18T04:25:02.310Z,5.80
2019-02-18T04:27:29.107Z,5.60
2019-02-18T04:29:55.048Z,5.67
2019-02-18T04:32:20.997Z,6.23
2019-02-18T04:34:47.003Z,6.73
2019-02-18T04:37:13.688Z,6.40
2019-02-18T04:39:39.678Z,6.27
2019-02-18T04:42:05.649Z,7.00
2019-02-18T04:44:31.641Z,7.07
2019-02-18T04:46:57.607Z,6.87
2019-02-18T04:49:23.581Z,6.57
2019-02-18T04:51:49.537Z,7.17
2019-02-18T04:54:15.506Z,7.07
2019-02-18T04:56:41.448Z,6.03
2019-02-18T04:59:08.141Z,6.17
2019-02-18T05:01:34.114Z,6.63
2019-02-18T05:04:00.063Z,5.93
2019-02-18T05:06:26.036Z,5.80
2019-02-18T05:08:52.735Z,6.50
2019-02-18T05:11:18.716Z,6.23
2019-02-18T05:13:45.931Z,6.53
2019-02-18T05:16:10.693Z,6.57
2019-02-18T05:18:36.655Z,6.30
2019-02-18T05:21:02.613Z,6.57
2019-02-18T05:23:29.371Z,6.37
2019-02-18T05:25:55.383Z,5.87
2019-02-18T05:28:21.395Z,6.03
2019-02-18T05:30:47.358Z,6.57
2019-02-18T05:33:13.352Z,6.13
2019-02-18T05:35:39.293Z,6.70
2019-02-18T05:38:05.281Z,6.37
2019-02-18T05:40:31.250Z,6.63
2019-02-18T05:42:57.234Z,6.50
2019-02-18T05:45:23.216Z,7.00
2019-02-18T05:47:49.246Z,6.27
2019-02-18T05:50:15.939Z,6.80
2019-02-18T05:52:41.942Z,5.83
2019-02-18T05:55:08.646Z,5.73
2019-02-18T05:57:34.704Z,6.10
2019-02-18T06:00:00.691Z,6.07
2019-02-18T06:02:26.676Z,6.67
2019-02-18T06:04:52.658Z,5.93
2019-02-18T06:07:19.368Z,6.70
2019-02-18T06:09:45.354Z,5.83
2019-02-18T06:12:11.349Z,6.47
2019-02-18T06:14:38.095Z,6.27
2019-02-18T06:17:04.062Z,6.77
2019-02-18T06:19:30.031Z,7.60
2019-02-18T06:21:56.016Z,6.97
2019-02-18T06:24:22.012Z,7.33
2019-02-18T06:26:47.980Z,7.80
2019-02-18T06:29:14.685Z,7.90
2019-02-18T06:31:40.680Z,7.13
2019-02-18T06:34:06.626Z,7.63
2019-02-18T06:36:32.609Z,8.07
2019-02-18T06:38:59.316Z,7.57
2019-02-18T06:41:25.310Z,7.27
2019-02-18T06:43:51.278Z,6.30
2019-02-18T06:46:17.257Z,6.37
2019-02-18T06:48:43.220Z,6.47
2019-02-18T06:51:09.956Z,6.50
2019-02-18T06:53:35.901Z,6.57
2019-02-18T06:56:02.652Z,6.23
2019-02-18T06:58:29.403Z,7.80
2019-02-18T07:00:55.367Z,7.47
2019-02-18T07:03:21.312Z,7.53
2019-02-18T07:05:47.323Z,7.80
2019-02-18T07:08:13.298Z,6.37
2019-02-18T07:10:39.312Z,6.90
2019-02-18T07:13:06.054Z,6.63
2019-02-18T07:15:32.023Z,6.87
2019-02-18T07:17:58.008Z,6.63
2019-02-18T07:20:23.957Z,6.60
2019-02-18T07:22:49.937Z,6.60
2019-02-18T07:25:15.924Z,7.10
2019-02-18T07:27:41.904Z,6.67
2019-02-18T07:30:07.859Z,6.47
2019-02-18T07:32:33.871Z,7.10
2019-02-18T07:34:59.829Z,7.00
2019-02-18T07:37:25.827Z,6.83
2019-02-18T07:40:00.790Z,6.93
2019-02-18T07:42:17.815Z,7.10
2019-02-18T07:44:44.512Z,6.60
2019-02-18T07:47:10.495Z,7.50
2019-02-18T07:49:36.455Z,7.03
2019-02-18T07:52:02.434Z,6.30
2019-02-18T07:54:28.429Z,6.47
2019-02-18T07:56:54.383Z,6.50
2019-02-18T07:59:20.352Z,7.13
2019-02-18T08:01:46.347Z,5.70
2019-02-18T08:04:12.348Z,6.27
2019-02-18T08:06:38.289Z,6.50
2019-02-18T08:09:04.297Z,6.03
2019-02-18T08:11:30.274Z,6.40
2019-02-18T08:13:56.243Z,6.43
2019-02-18T08:16:22.225Z,6.87
2019-02-18T08:18:48.207Z,6.10
2019-02-18T08:21:14.258Z,6.10
2019-02-18T08:23:40.233Z,6.43
2019-02-18T08:26:06.179Z,6.40
2019-02-18T08:28:32.154Z,5.83
2019-02-18T08:30:58.880Z,5.83
2019-02-18T08:33:25.608Z,6.80
2019-02-18T08:35:51.600Z,6.37
2019-02-18T08:38:17.547Z,6.20
2019-02-18T08:40:43.579Z,6.67
2019-02-18T08:43:09.742Z,7.07
2019-02-18T08:45:36.473Z,6.90
2019-02-18T08:48:03.175Z,7.27
2019-02-18T08:50:29.163Z,6.67
2019-02-18T08:52:55.103Z,6.23
2019-02-18T08:55:21.077Z,7.03
2019-02-18T08:57:47.017Z,6.90
2019-02-18T09:00:13.751Z,6.70
2019-02-18T09:02:40.441Z,6.83
2019-02-18T09:05:06.464Z,6.00
2019-02-18T09:07:32.416Z,6.87
2019-02-18T09:09:58.383Z,7.03
2019-02-18T09:12:24.354Z,7.27
2019-02-18T09:14:50.347Z,6.73
2019-02-18T09:17:16.310Z,6.83
2019-02-18T09:19:42.283Z,6.83
2019-02-18T09:22:08.259Z,7.17
2019-02-18T09:24:34.232Z,7.07
2019-02-18T09:27:00.174Z,7.13
2019-02-18T09:29:26.143Z,6.67
2019-02-18T09:31:52.869Z,6.83
2019-02-18T09:34:19.595Z,7.33
2019-02-18T09:36:45.591Z,6.77
2019-02-18T09:39:11.577Z,6.80
2019-02-18T09:41:37.564Z,7.27
2019-02-18T09:44:03.522Z,7.77
2019-02-18T09:46:29.523Z,7.20
2019-02-18T09:48:56.248Z,7.40
2019-02-18T09:51:22.246Z,7.43
2019-02-18T09:53:48.190Z,7.70
2019-02-18T09:56:14.177Z,6.60
2019-02-18T09:58:40.181Z,6.67
2019-02-18T10:01:06.154Z,7.33
2019-02-18T10:03:32.455Z,7.13
2019-02-18T10:05:58.186Z,6.37
2019-02-18T10:08:24.180Z,6.67
2019-02-18T10:10:55.926Z,7.07
2019-02-18T10:13:16.191Z,7.23
2019-02-18T10:15:42.962Z,6.97
2019-02-18T10:18:09.507Z,6.57
2019-02-18T10:20:35.497Z,6.60
2019-02-18T10:23:02.224Z,6.60
2019-02-18T10:25:28.191Z,6.73
2019-02-18T10:27:54.220Z,6.23
2019-02-18T10:30:20.821Z,6.70
2019-02-18T10:32:46.220Z,6.33
2019-02-18T10:35:12.920Z,6.87
2019-02-18T10:37:38.910Z,6.27
2019-02-18T10:40:04.860Z,6.37
2019-02-18T10:42:30.860Z,6.17
2019-02-18T10:44:56.882Z,5.93
2019-02-18T10:47:22.897Z,6.53
2019-02-18T10:49:48.881Z,5.70
2019-02-18T10:52:14.872Z,5.60
2019-02-18T10:54:40.853Z,6.13
2019-02-18T10:57:06.856Z,5.23
2019-02-18T10:59:32.832Z,5.90
2019-02-18T11:01:58.812Z,5.30
2019-02-18T11:04:24.820Z,5.63
2019-02-18T11:06:50.799Z,6.40
2019-02-18T11:09:16.762Z,6.70
2019-02-18T11:11:42.751Z,6.57
2019-02-18T11:14:08.731Z,5.50
2019-02-18T11:16:34.734Z,5.87
2019-02-18T11:19:00.724Z,5.73
2019-02-18T11:21:26.719Z,6.00
2019-02-18T11:23:52.693Z,5.60
2019-02-18T11:26:18.669Z,6.00
2019-02-18T11:28:44.659Z,6.50
2019-02-18T11:31:11.370Z,6.53
2019-02-18T11:33:37.361Z,6.33
2019-02-18T11:36:03.316Z,6.40
2019-02-18T11:38:29.319Z,6.00
2019-02-18T11:40:55.297Z,5.97
2019-02-18T11:43:22.058Z,6.80
2019-02-18T11:45:48.018Z,6.10
2019-02-18T11:48:14.016Z,6.20
2019-02-18T11:50:39.994Z,5.70
2019-02-18T11:53:06.052Z,6.13
2019-02-18T11:55:32.029Z,5.97
2019-02-18T11:57:58.022Z,6.57
2019-02-18T12:00:23.987Z,5.60
2019-02-18T12:02:50.707Z,5.60
2019-02-18T12:05:16.713Z,5.07
2019-02-18T12:07:42.687Z,5.30
2019-02-18T12:10:08.707Z,5.47
2019-02-18T12:12:34.720Z,5.43
2019-02-18T12:15:00.825Z,5.47
2019-02-18T12:17:26.811Z,5.50
2019-02-18T12:19:52.801Z,5.30
2019-02-18T12:22:19.515Z,5.43
2019-02-18T12:24:45.543Z,5.57
2019-02-18T12:27:11.536Z,5.93
2019-02-18T12:29:37.533Z,6.03
2019-02-18T12:32:03.527Z,6.37
2019-02-18T12:34:30.248Z,5.90
2019-02-18T12:36:56.214Z,5.57
2019-02-18T12:39:22.849Z,5.20
2019-02-18T12:41:49.134Z,6.27
2019-02-18T12:44:14.267Z,6.17
2019-02-18T12:46:40.221Z,5.67
2019-02-18T12:49:06.248Z,5.60
2019-02-18T12:51:32.224Z,6.20
2019-02-18T12:54:04.865Z,6.43
2019-02-18T12:56:24.259Z,6.20
2019-02-18T12:59:29.171Z,6.70
2019-02-18T13:01:17.058Z,5.90
2019-02-18T13:03:43.069Z,6.13
2019-02-18T13:06:09.827Z,6.37
2019-02-18T13:08:35.813Z,6.20
2019-02-18T13:11:01.836Z,6.60
2019-02-18T13:13:27.811Z,5.80
2019-02-18T13:15:53.831Z,6.70
2019-02-18T13:18:19.827Z,6.37
2019-02-18T13:20:45.873Z,5.93
2019-02-18T13:23:11.878Z,6.40
2019-02-18T13:25:38.628Z,6.50
2019-02-18T13:28:08.446Z,6.37
2019-02-18T13:30:30.760Z,6.63
2019-02-18T13:32:57.495Z,6.33
2019-02-18T13:35:24.297Z,5.57
2019-02-18T13:37:50.264Z,5.73
2019-02-18T13:40:16.322Z,6.37
2019-02-18T13:42:42.302Z,6.57
2019-02-18T13:45:08.322Z,5.60
2019-02-18T13:47:34.290Z,7.30
2019-02-18T13:50:00.301Z,6.20
2019-02-18T13:52:27.054Z,6.17
2019-02-18T13:54:53.043Z,6.10
2019-02-18T13:57:19.811Z,6.70
2019-02-18T13:59:45.788Z,6.50
2019-02-18T14:02:12.578Z,6.63
2019-02-18T14:04:38.561Z,6.10
2019-02-18T14:07:04.565Z,6.07
2019-02-18T14:09:30.550Z,6.53
2019-02-18T14:11:56.551Z,6.40
2019-02-18T14:14:23.292Z,6.67
2019-02-18T14:16:50.021Z,7.23
2019-02-18T14:19:16.005Z,6.70
2019-02-18T14:21:42.802Z,6.43
2019-02-18T14:24:09.505Z,6.50
2019-02-18T14:26:35.488Z,6.10
2019-02-18T14:29:01.475Z,6.70
2019-02-18T14:31:27.474Z,6.80
2019-02-18T14:33:53.450Z,6.73
2019-02-18T14:36:19.426Z,6.17
2019-02-18T14:38:45.418Z,6.57
2019-02-18T14:41:11.407Z,6.40
2019-02-18T14:43:37.465Z,6.73
2019-02-18T14:46:03.465Z,5.93
2019-02-18T14:48:29.482Z,6.77
2019-02-18T14:50:56.927Z,7.10
2019-02-18T14:53:21.520Z,6.27
2019-02-18T14:55:48.249Z,6.93
2019-02-18T14:58:15.003Z,7.50
2019-02-18T15:00:40.949Z,6.30
2019-02-18T15:03:06.987Z,6.57
2019-02-18T15:05:32.972Z,6.93
2019-02-18T15:07:58.983Z,7.00
2019-02-18T15:10:24.975Z,6.50
2019-02-18T15:12:50.964Z,7.03
2019-02-18T15:15:16.935Z,6.57
2019-02-18T15:17:43.691Z,6.70
2019-02-18T15:20:11.593Z,6.27
2019-02-18T15:22:43.388Z,6.77
2019-02-18T15:25:09.381Z,6.10
2019-02-18T15:27:35.352Z,6.03
2019-02-18T15:30:01.971Z,6.27
2019-02-18T15:32:28.709Z,5.83
2019-02-18T15:34:54.724Z,6.23
2019-02-18T15:37:21.476Z,5.83
2019-02-18T15:39:46.745Z,7.10
2019-02-18T15:42:13.442Z,7.07
2019-02-18T15:44:40.192Z,6.00
2019-02-18T15:47:06.181Z,6.77
2019-02-18T15:49:32.230Z,6.67
2019-02-18T15:51:58.212Z,6.27
2019-02-18T15:54:24.241Z,6.70
2019-02-18T15:56:50.239Z,6.00
2019-02-18T15:59:16.285Z,7.53
2019-02-18T16:01:42.255Z,6.53
2019-02-18T16:04:08.233Z,6.33
2019-02-18T16:06:34.222Z,6.73
2019-02-18T16:09:00.208Z,7.40
2019-02-18T16:11:26.220Z,6.20
2019-02-18T16:13:52.179Z,6.73
2019-02-18T16:16:18.939Z,6.47
2019-02-18T16:18:44.919Z,7.33
2019-02-18T16:21:10.962Z,7.10
2019-02-18T16:23:37.665Z,7.50
2019-02-18T16:26:03.697Z,7.03
2019-02-18T16:28:29.682Z,7.47
2019-02-18T16:30:55.691Z,6.90
2019-02-18T16:33:21.694Z,6.57
2019-02-18T16:35:47.718Z,7.20
2019-02-18T16:38:14.436Z,6.73
2019-02-18T16:40:40.454Z,6.33
2019-02-18T16:43:06.455Z,6.70
2019-02-18T16:45:32.454Z,7.00
2019-02-18T16:47:58.523Z,6.77
2019-02-18T16:50:24.502Z,7.00
2019-02-18T16:52:50.508Z,6.93
2019-02-18T16:55:16.494Z,6.97
2019-02-18T16:57:42.508Z,7.20
2019-02-18T17:00:09.337Z,7.00
2019-02-18T17:02:35.359Z,7.27
2019-02-18T17:05:01.312Z,6.97
2019-02-18T17:07:27.310Z,6.90
2019-02-18T17:09:53.292Z,7.30
2019-02-18T17:12:19.294Z,6.63
2019-02-18T17:14:45.248Z,7.10
2019-02-18T17:17:11.256Z,7.20
2019-02-18T17:19:37.305Z,8.50
2019-02-18T17:22:03.294Z,7.60
2019-02-18T17:24:29.294Z,8.07
2019-02-18T17:26:55.328Z,7.43
2019-02-18T17:29:21.282Z,7.67
2019-02-18T17:31:47.281Z,7.80
2019-02-18T17:34:13.270Z,8.00
2019-02-18T17:36:39.266Z,8.17
2019-02-18T17:39:05.250Z,8.30
2019-02-18T17:41:31.259Z,8.33
2019-02-18T17:43:57.252Z,7.77
2019-02-18T17:46:23.223Z,8.27
2019-02-18T17:48:49.977Z,8.27
2019-02-18T17:51:15.975Z,7.97
2019-02-18T17:53:42.731Z,8.03
2019-02-18T17:56:09.450Z,8.57
2019-02-18T17:58:35.457Z,8.47
2019-02-18T18:01:02.216Z,9.57
2019-02-18T18:03:28.191Z,7.80
2019-02-18T18:05:54.183Z,7.90
2019-02-18T18:08:20.897Z,8.77
2019-02-18T18:10:46.900Z,8.00
2019-02-18T18:13:12.887Z,8.60
2019-02-18T18:15:38.902Z,8.57
2019-02-18T18:18:05.627Z,8.10
2019-02-18T18:20:31.706Z,8.77
2019-02-18T18:22:57.954Z,7.67
2019-02-18T18:25:24.080Z,7.53
2019-02-18T18:27:50.052Z,8.03
2019-02-18T18:30:16.134Z,8.20
2019-02-18T18:32:42.117Z,8.67
2019-02-18T18:35:08.167Z,8.10
2019-02-18T18:37:34.169Z,8.87
2019-02-18T18:40:00.314Z,8.40
2019-02-18T18:42:26.234Z,9.00
2019-02-18T18:44:52.264Z,9.30
2019-02-18T18:47:18.249Z,8.63
2019-02-18T18:49:45.017Z,9.13
2019-02-18T18:52:10.993Z,9.63
2019-02-18T18:54:37.757Z,9.00
2019-02-18T18:57:04.507Z,9.40
2019-02-18T18:59:30.815Z,9.23
2019-02-18T19:01:57.549Z,9.70
2019-02-18T19:04:24.236Z,8.93
2019-02-18T19:06:50.242Z,9.40
2019-02-18T19:09:16.226Z,9.63
2019-02-18T19:11:43.038Z,10.33
2019-02-18T19:14:09.035Z,9.40
2019-02-18T19:16:35.033Z,9.53
2019-02-18T19:19:02.836Z,8.90
2019-02-18T19:21:27.432Z,9.70
2019-02-18T19:23:53.501Z,9.73
2019-02-18T19:26:19.498Z,9.07
2019-02-18T19:28:46.555Z,9.37
2019-02-18T19:31:11.762Z,8.83
2019-02-18T19:33:37.867Z,9.03
2019-02-18T19:36:03.902Z,8.47
2019-02-18T19:38:30.075Z,8.90
2019-02-18T19:40:56.928Z,8.67
2019-02-18T19:43:22.967Z,8.57
2019-02-18T19:45:48.997Z,8.93
2019-02-18T19:48:14.992Z,9.47
2019-02-18T19:50:41.024Z,8.53
2019-02-18T19:53:06.998Z,9.07
2019-02-18T19:55:33.751Z,9.03
2019-02-18T19:57:59.798Z,8.37
2019-02-18T20:00:25.811Z,9.30
2019-02-18T20:02:51.907Z,8.37
2019-02-18T20:05:17.871Z,9.83
2019-02-18T20:07:44.390Z,9.53
2019-02-18T20:10:10.321Z,10.20
2019-02-18T20:12:36.348Z,8.80
2019-02-18T20:15:02.367Z,8.43
2019-02-18T20:17:28.391Z,9.20
2019-02-18T20:19:55.187Z,9.10
2019-02-18T20:22:21.164Z,9.07
2019-02-18T20:24:47.207Z,9.20
2019-02-18T20:27:13.249Z,8.37
2019-02-18T20:29:39.239Z,9.23
2019-02-18T20:32:05.204Z,8.77
2019-02-18T20:34:31.194Z,9.60
2019-02-18T20:36:57.222Z,9.33
2019-02-18T20:39:23.215Z,9.33
2019-02-18T20:41:51.520Z,9.67
2019-02-18T20:44:16.814Z,9.90
2019-02-18T20:46:42.802Z,10.67
2019-02-18T20:49:08.796Z,9.10
2019-02-18T20:51:34.770Z,9.10
2019-02-18T20:54:00.791Z,9.90
2019-02-18T20:56:26.851Z,9.50
2019-02-18T20:58:52.834Z,9.97
2019-02-18T21:01:19.629Z,9.87
2019-02-18T21:03:45.717Z,9.80
2019-02-18T21:06:12.464Z,9.43
2019-02-18T21:08:38.551Z,10.00
2019-02-18T21:11:04.554Z,10.47
2019-02-18T21:13:30.502Z,9.13
2019-02-18T21:15:56.476Z,10.30
2019-02-18T21:18:22.736Z,10.00
2019-02-18T21:20:48.829Z,9.77
2019-02-18T21:23:15.530Z,9.30
2019-02-18T21:25:42.224Z,9.87
2019-02-18T21:28:08.443Z,10.23
2019-02-18T21:30:35.148Z,9.33
2019-02-18T21:33:01.990Z,9.83
2019-02-18T21:35:28.374Z,10.33
2019-02-18T21:37:54.349Z,9.50
2019-02-18T21:40:20.602Z,9.93
2019-02-18T21:42:47.249Z,9.97
2019-02-18T21:45:13.219Z,10.50
2019-02-18T21:47:39.214Z,10.53
2019-02-18T21:50:05.811Z,10.97
2019-02-18T21:52:32.278Z,10.37
2019-02-18T21:54:58.235Z,9.73
2019-02-18T21:57:24.699Z,10.93
2019-02-18T21:59:51.406Z,11.07
2019-02-18T22:02:17.403Z,11.13
2019-02-18T22:04:43.365Z,10.70
2019-02-18T22:07:10.110Z,9.50
2019-02-18T22:09:36.904Z,11.13
2019-02-18T22:12:03.736Z,10.33
2019-02-18T22:14:33.640Z,10.13
2019-02-18T22:16:56.308Z,10.37
2019-02-18T22:19:22.305Z,10.83
2019-02-18T22:21:48.302Z,10.13
2019-02-18T22:24:15.043Z,10.40
2019-02-18T22:26:41.742Z,11.03
2019-02-18T22:29:07.726Z,11.17
2019-02-18T22:31:34.432Z,11.37
2019-02-18T22:34:00.480Z,11.83
2019-02-18T22:36:26.432Z,10.87
2019-02-18T22:38:52.425Z,11.20
2019-02-18T22:41:18.377Z,11.93
2019-02-18T22:43:44.375Z,11.37
2019-02-18T22:46:10.322Z,11.07
2019-02-18T22:48:36.335Z,11.53
2019-02-18T22:51:02.293Z,12.77
2019-02-18T22:53:28.893Z,12.27
2019-02-18T22:55:55.072Z,11.43
2019-02-18T22:58:21.056Z,12.17
2019-02-18T23:00:47.025Z,12.13
2019-02-18T23:03:13.848Z,12.17
2019-02-18T23:05:40.593Z,12.50
2019-02-18T23:08:07.300Z,12.20
2019-02-18T23:10:33.321Z,12.50
2019-02-18T23:12:59.352Z,12.53
2019-02-18T23:15:25.350Z,11.97
2019-02-18T23:17:51.377Z,12.90
2019-02-18T23:20:17.374Z,11.57
2019-02-18T23:22:44.088Z,13.47
2019-02-18T23:25:10.082Z,14.03
2019-02-18T23:27:36.026Z,13.47
2019-02-18T23:30:02.037Z,13.43
2019-02-18T23:32:28.000Z,13.60
2019-02-18T23:34:53.961Z,14.63
2019-02-18T23:37:19.944Z,15.10
2019-02-18T23:39:45.934Z,14.27
2019-02-18T23:42:11.887Z,14.03
2019-02-18T23:44:37.877Z,14.70
2019-02-18T23:47:03.829Z,15.70
2019-02-18T23:49:29.778Z,15.57
2019-02-18T23:51:55.753Z,14.87
2019-02-18T23:54:21.689Z,13.67
2019-02-18T23:56:48.438Z,15.20
2019-02-18T23:59:15.156Z,15.07
